sensor_id;sensor_type;location;lat;lon;timestamp;pressure;altitude;pressure_sealevel;temperature;humidity
75740;BME280;64357;51.344;6.550;2023-06-14T00:01:56;100875.16;;;19.70;44.67
75740;BME280;64357;51.344;6.550;2023-06-14T00:04:24;100892.16;;;19.80;44.81
75740;BME280;64357;51.344;6.550;2023-06-14T00:06:50;100888.75;;;19.81;44.63
75740;BME280;64357;51.344;6.550;2023-06-14T00:09:18;100886.28;;;19.69;44.57
75740;BME280;64357;51.344;6.550;2023-06-14T00:11:44;100887.09;;;19.68;44.75
75740;BME280;64357;51.344;6.550;2023-06-14T00:14:13;100891.97;;;19.63;44.99
75740;BME280;64357;51.344;6.550;2023-06-14T00:16:39;100885.28;;;19.54;45.15
75740;BME280;64357;51.344;6.550;2023-06-14T00:19:08;100892.34;;;19.56;45.10
75740;BME280;64357;51.344;6.550;2023-06-14T00:21:36;100895.66;;;19.54;45.55
75740;BME280;64357;51.344;6.550;2023-06-14T00:24:03;100892.75;;;19.49;45.53
75740;BME280;64357;51.344;6.550;2023-06-14T00:26:29;100891.78;;;19.47;45.79
75740;BME280;64357;51.344;6.550;2023-06-14T00:28:56;100887.09;;;19.41;46.15
75740;BME280;64357;51.344;6.550;2023-06-14T00:31:27;100900.81;;;19.40;46.22
75740;BME280;64357;51.344;6.550;2023-06-14T00:33:53;100902.13;;;19.34;46.90
75740;BME280;64357;51.344;6.550;2023-06-14T00:36:20;100894.75;;;19.27;46.77
75740;BME280;64357;51.344;6.550;2023-06-14T00:38:46;100910.38;;;19.28;47.04
75740;BME280;64357;51.344;6.550;2023-06-14T00:41:13;100911.91;;;19.11;48.01
75740;BME280;64357;51.344;6.550;2023-06-14T00:43:41;100915.06;;;19.07;48.10
75740;BME280;64357;51.344;6.550;2023-06-14T00:46:07;100905.59;;;18.95;48.07
75740;BME280;64357;51.344;6.550;2023-06-14T00:48:35;100908.94;;;18.94;48.42
75740;BME280;64357;51.344;6.550;2023-06-14T00:51:01;100912.22;;;18.78;48.40
75740;BME280;64357;51.344;6.550;2023-06-14T00:53:31;100913.16;;;18.67;48.71
75740;BME280;64357;51.344;6.550;2023-06-14T00:55:59;100913.94;;;18.65;49.28
75740;BME280;64357;51.344;6.550;2023-06-14T00:58:26;100912.88;;;18.50;49.58
75740;BME280;64357;51.344;6.550;2023-06-14T01:00:51;100908.00;;;18.42;50.44
75740;BME280;64357;51.344;6.550;2023-06-14T01:03:19;100909.53;;;18.39;50.23
75740;BME280;64357;51.344;6.550;2023-06-14T01:05:48;100916.94;;;18.22;51.37
75740;BME280;64357;51.344;6.550;2023-06-14T01:11:16;100903.59;;;18.04;52.23
75740;BME280;64357;51.344;6.550;2023-06-14T01:13:46;100911.50;;;17.94;52.51
75740;BME280;64357;51.344;6.550;2023-06-14T01:16:13;100908.84;;;17.80;52.77
75740;BME280;64357;51.344;6.550;2023-06-14T01:18:39;100913.34;;;17.83;52.78
75740;BME280;64357;51.344;6.550;2023-06-14T01:21:20;100908.50;;;17.76;53.26
75740;BME280;64357;51.344;6.550;2023-06-14T01:23:45;100913.56;;;17.74;53.79
75740;BME280;64357;51.344;6.550;2023-06-14T01:26:13;100910.59;;;17.70;53.92
75740;BME280;64357;51.344;6.550;2023-06-14T01:28:43;100911.41;;;17.69;54.05
75740;BME280;64357;51.344;6.550;2023-06-14T01:31:16;100913.97;;;17.69;54.17
75740;BME280;64357;51.344;6.550;2023-06-14T01:33:43;100919.63;;;17.75;53.81
75740;BME280;64357;51.344;6.550;2023-06-14T01:36:09;100908.72;;;17.79;53.78
75740;BME280;64357;51.344;6.550;2023-06-14T01:38:36;100915.25;;;17.74;53.85
75740;BME280;64357;51.344;6.550;2023-06-14T01:41:04;100917.84;;;17.74;53.97
75740;BME280;64357;51.344;6.550;2023-06-14T01:43:36;100916.03;;;17.73;53.84
75740;BME280;64357;51.344;6.550;2023-06-14T01:46:03;100917.16;;;17.76;53.90
75740;BME280;64357;51.344;6.550;2023-06-14T01:48:28;100914.56;;;17.76;53.77
75740;BME280;64357;51.344;6.550;2023-06-14T01:50:57;100902.22;;;17.72;53.37
75740;BME280;64357;51.344;6.550;2023-06-14T01:53:22;100901.88;;;17.68;53.02
75740;BME280;64357;51.344;6.550;2023-06-14T01:55:50;100909.84;;;17.71;53.37
75740;BME280;64357;51.344;6.550;2023-06-14T01:58:17;100906.25;;;17.80;53.06
75740;BME280;64357;51.344;6.550;2023-06-14T02:00:47;100889.50;;;17.64;52.97
75740;BME280;64357;51.344;6.550;2023-06-14T02:03:13;100911.22;;;17.77;53.27
75740;BME280;64357;51.344;6.550;2023-06-14T02:05:39;100909.41;;;17.76;53.21
75740;BME280;64357;51.344;6.550;2023-06-14T02:08:05;100909.28;;;17.75;52.92
75740;BME280;64357;51.344;6.550;2023-06-14T02:10:30;100904.69;;;17.71;52.92
75740;BME280;64357;51.344;6.550;2023-06-14T02:12:56;100909.97;;;17.72;53.00
75740;BME280;64357;51.344;6.550;2023-06-14T02:15:21;100916.16;;;17.74;52.59
75740;BME280;64357;51.344;6.550;2023-06-14T02:17:47;100915.50;;;17.77;52.70
75740;BME280;64357;51.344;6.550;2023-06-14T02:20:14;100908.63;;;17.66;52.58
75740;BME280;64357;51.344;6.550;2023-06-14T02:22:39;100908.91;;;17.70;52.60
75740;BME280;64357;51.344;6.550;2023-06-14T02:25:05;100905.13;;;17.65;52.58
75740;BME280;64357;51.344;6.550;2023-06-14T02:27:31;100908.47;;;17.64;52.79
75740;BME280;64357;51.344;6.550;2023-06-14T02:29:57;100916.22;;;17.64;52.88
75740;BME280;64357;51.344;6.550;2023-06-14T02:32:22;100913.53;;;17.63;53.31
75740;BME280;64357;51.344;6.550;2023-06-14T02:34:48;100914.09;;;17.58;53.46
75740;BME280;64357;51.344;6.550;2023-06-14T02:37:15;100919.16;;;17.57;53.29
75740;BME280;64357;51.344;6.550;2023-06-14T02:39:41;100910.63;;;17.46;53.19
75740;BME280;64357;51.344;6.550;2023-06-14T02:42:06;100914.44;;;17.40;53.46
75740;BME280;64357;51.344;6.550;2023-06-14T02:44:32;100930.53;;;17.47;53.82
75740;BME280;64357;51.344;6.550;2023-06-14T02:46:57;100923.00;;;17.50;53.60
75740;BME280;64357;51.344;6.550;2023-06-14T02:49:26;100918.06;;;17.42;54.03
75740;BME280;64357;51.344;6.550;2023-06-14T02:51:57;100921.66;;;17.44;53.46
75740;BME280;64357;51.344;6.550;2023-06-14T02:54:22;100917.63;;;17.36;53.76
75740;BME280;64357;51.344;6.550;2023-06-14T02:56:48;100918.06;;;17.30;53.83
75740;BME280;64357;51.344;6.550;2023-06-14T02:59:13;100937.69;;;17.40;53.68
75740;BME280;64357;51.344;6.550;2023-06-14T03:01:39;100936.25;;;17.31;54.07
75740;BME280;64357;51.344;6.550;2023-06-14T03:04:07;100934.09;;;17.26;53.93
75740;BME280;64357;51.344;6.550;2023-06-14T03:06:35;100926.00;;;17.21;54.15
75740;BME280;64357;51.344;6.550;2023-06-14T03:09:01;100941.06;;;17.27;54.21
75740;BME280;64357;51.344;6.550;2023-06-14T03:11:32;100940.84;;;17.24;54.12
75740;BME280;64357;51.344;6.550;2023-06-14T03:14:00;100946.56;;;17.20;54.30
75740;BME280;64357;51.344;6.550;2023-06-14T03:16:25;100940.50;;;17.19;54.58
75740;BME280;64357;51.344;6.550;2023-06-14T03:18:54;100954.41;;;17.21;54.43
75740;BME280;64357;51.344;6.550;2023-06-14T03:21:19;100952.72;;;17.10;54.74
75740;BME280;64357;51.344;6.550;2023-06-14T03:23:50;100941.28;;;17.07;54.96
75740;BME280;64357;51.344;6.550;2023-06-14T03:26:16;100943.41;;;17.00;54.97
75740;BME280;64357;51.344;6.550;2023-06-14T03:28:45;100957.41;;;17.04;55.24
75740;BME280;64357;51.344;6.550;2023-06-14T03:31:13;100965.84;;;17.01;55.43
75740;BME280;64357;51.344;6.550;2023-06-14T03:33:39;100954.00;;;16.93;55.12
75740;BME280;64357;51.344;6.550;2023-06-14T03:36:05;100970.66;;;16.97;55.66
75740;BME280;64357;51.344;6.550;2023-06-14T03:38:32;100968.72;;;16.94;55.90
75740;BME280;64357;51.344;6.550;2023-06-14T03:40:59;100965.13;;;16.92;55.78
75740;BME280;64357;51.344;6.550;2023-06-14T03:43:25;100970.19;;;16.91;55.97
75740;BME280;64357;51.344;6.550;2023-06-14T03:45:51;100970.81;;;16.88;55.47
75740;BME280;64357;51.344;6.550;2023-06-14T03:48:18;100975.22;;;16.89;55.84
75740;BME280;64357;51.344;6.550;2023-06-14T03:50:46;100965.44;;;16.85;55.94
75740;BME280;64357;51.344;6.550;2023-06-14T03:53:12;100981.63;;;16.94;55.84
75740;BME280;64357;51.344;6.550;2023-06-14T03:55:42;100969.94;;;16.88;55.88
75740;BME280;64357;51.344;6.550;2023-06-14T03:58:07;100987.91;;;16.98;55.81
75740;BME280;64357;51.344;6.550;2023-06-14T04:00:33;100983.44;;;16.95;55.91
75740;BME280;64357;51.344;6.550;2023-06-14T04:03:01;100983.88;;;16.90;56.05
75740;BME280;64357;51.344;6.550;2023-06-14T04:05:30;100976.78;;;16.87;56.21
75740;BME280;64357;51.344;6.550;2023-06-14T04:07:58;100967.91;;;16.84;56.84
75740;BME280;64357;51.344;6.550;2023-06-14T04:10:26;100992.25;;;16.87;56.77
75740;BME280;64357;51.344;6.550;2023-06-14T04:12:52;100984.94;;;16.82;57.09
75740;BME280;64357;51.344;6.550;2023-06-14T04:15:22;100984.50;;;16.87;57.05
75740;BME280;64357;51.344;6.550;2023-06-14T04:17:48;100997.78;;;16.92;57.03
75740;BME280;64357;51.344;6.550;2023-06-14T04:20:13;101002.25;;;16.94;56.66
75740;BME280;64357;51.344;6.550;2023-06-14T04:22:38;100998.66;;;16.92;56.34
75740;BME280;64357;51.344;6.550;2023-06-14T04:25:04;100995.25;;;16.82;56.29
75740;BME280;64357;51.344;6.550;2023-06-14T04:27:32;101000.25;;;16.90;56.30
75740;BME280;64357;51.344;6.550;2023-06-14T04:30:01;101003.84;;;16.92;56.35
75740;BME280;64357;51.344;6.550;2023-06-14T04:32:28;101010.59;;;17.02;56.36
75740;BME280;64357;51.344;6.550;2023-06-14T04:35:04;101012.63;;;17.06;56.03
75740;BME280;64357;51.344;6.550;2023-06-14T04:37:30;101004.66;;;17.03;56.54
75740;BME280;64357;51.344;6.550;2023-06-14T04:39:56;101014.31;;;17.05;56.44
75740;BME280;64357;51.344;6.550;2023-06-14T04:42:23;101009.06;;;17.16;56.38
75740;BME280;64357;51.344;6.550;2023-06-14T04:44:56;101009.06;;;17.16;56.58
75740;BME280;64357;51.344;6.550;2023-06-14T04:47:24;101026.06;;;17.36;56.26
75740;BME280;64357;51.344;6.550;2023-06-14T04:49:57;101019.44;;;17.39;56.03
75740;BME280;64357;51.344;6.550;2023-06-14T04:52:25;101020.44;;;17.41;55.69
75740;BME280;64357;51.344;6.550;2023-06-14T04:54:54;101031.94;;;17.56;55.33
75740;BME280;64357;51.344;6.550;2023-06-14T04:57:19;101020.47;;;17.65;54.66
75740;BME280;64357;51.344;6.550;2023-06-14T04:59:47;101032.78;;;17.79;54.06
75740;BME280;64357;51.344;6.550;2023-06-14T05:02:12;101029.28;;;17.90;53.85
75740;BME280;64357;51.344;6.550;2023-06-14T05:04:38;101033.91;;;18.06;53.54
75740;BME280;64357;51.344;6.550;2023-06-14T05:07:08;101034.09;;;18.09;51.80
75740;BME280;64357;51.344;6.550;2023-06-14T05:09:36;101040.84;;;18.19;52.81
75740;BME280;64357;51.344;6.550;2023-06-14T05:12:03;101039.50;;;18.24;51.96
75740;BME280;64357;51.344;6.550;2023-06-14T05:14:29;101057.69;;;18.37;51.48
75740;BME280;64357;51.344;6.550;2023-06-14T05:16:57;101042.16;;;18.37;50.09
75740;BME280;64357;51.344;6.550;2023-06-14T05:19:22;101049.44;;;18.54;49.96
75740;BME280;64357;51.344;6.550;2023-06-14T05:21:48;101052.44;;;18.60;49.08
75740;BME280;64357;51.344;6.550;2023-06-14T05:24:15;101056.41;;;18.67;48.44
75740;BME280;64357;51.344;6.550;2023-06-14T05:26:42;101055.47;;;18.67;48.51
75740;BME280;64357;51.344;6.550;2023-06-14T05:29:10;101052.19;;;18.81;48.35
75740;BME280;64357;51.344;6.550;2023-06-14T05:31:36;101054.28;;;18.86;47.91
75740;BME280;64357;51.344;6.550;2023-06-14T05:34:01;101050.91;;;18.87;48.33
75740;BME280;64357;51.344;6.550;2023-06-14T05:36:27;101053.41;;;18.86;47.77
75740;BME280;64357;51.344;6.550;2023-06-14T05:38:53;101049.88;;;18.97;48.14
75740;BME280;64357;51.344;6.550;2023-06-14T05:41:27;101043.31;;;19.02;47.58
75740;BME280;64357;51.344;6.550;2023-06-14T05:43:54;101052.16;;;19.17;47.45
75740;BME280;64357;51.344;6.550;2023-06-14T05:46:20;101059.00;;;19.17;47.60
75740;BME280;64357;51.344;6.550;2023-06-14T05:48:48;101061.41;;;19.27;47.16
75740;BME280;64357;51.344;6.550;2023-06-14T05:51:13;101066.81;;;19.30;47.59
75740;BME280;64357;51.344;6.550;2023-06-14T05:53:39;101067.81;;;19.32;47.44
75740;BME280;64357;51.344;6.550;2023-06-14T05:56:07;101072.34;;;19.48;46.93
75740;BME280;64357;51.344;6.550;2023-06-14T05:58:32;101071.56;;;19.49;46.23
75740;BME280;64357;51.344;6.550;2023-06-14T06:01:02;101062.09;;;19.50;46.28
75740;BME280;64357;51.344;6.550;2023-06-14T06:03:31;101063.91;;;19.64;46.58
75740;BME280;64357;51.344;6.550;2023-06-14T06:05:59;101078.63;;;19.77;46.87
75740;BME280;64357;51.344;6.550;2023-06-14T06:08:27;101078.50;;;19.75;46.17
75740;BME280;64357;51.344;6.550;2023-06-14T06:10:53;101079.69;;;19.80;46.07
75740;BME280;64357;51.344;6.550;2023-06-14T06:13:18;101081.72;;;19.84;45.93
75740;BME280;64357;51.344;6.550;2023-06-14T06:15:44;101078.63;;;19.90;45.99
75740;BME280;64357;51.344;6.550;2023-06-14T06:18:09;101083.41;;;19.97;45.88
75740;BME280;64357;51.344;6.550;2023-06-14T06:20:37;101080.72;;;20.09;45.55
75740;BME280;64357;51.344;6.550;2023-06-14T06:23:04;101088.78;;;20.27;45.29
75740;BME280;64357;51.344;6.550;2023-06-14T06:25:29;101080.03;;;20.24;43.97
75740;BME280;64357;51.344;6.550;2023-06-14T06:27:57;101079.31;;;20.40;43.52
75740;BME280;64357;51.344;6.550;2023-06-14T06:30:23;101080.91;;;20.38;42.68
75740;BME280;64357;51.344;6.550;2023-06-14T06:32:49;101085.56;;;20.44;42.13
75740;BME280;64357;51.344;6.550;2023-06-14T06:35:17;101086.91;;;20.50;42.32
75740;BME280;64357;51.344;6.550;2023-06-14T06:37:43;101092.56;;;20.45;41.48
75740;BME280;64357;51.344;6.550;2023-06-14T06:40:09;101092.47;;;20.57;41.35
75740;BME280;64357;51.344;6.550;2023-06-14T06:42:35;101107.16;;;20.56;41.60
75740;BME280;64357;51.344;6.550;2023-06-14T06:45:31;101097.53;;;20.68;41.11
75740;BME280;64357;51.344;6.550;2023-06-14T06:47:56;101094.84;;;20.67;40.69
75740;BME280;64357;51.344;6.550;2023-06-14T06:50:24;101094.22;;;20.84;40.00
75740;BME280;64357;51.344;6.550;2023-06-14T06:52:52;101091.31;;;20.80;39.38
75740;BME280;64357;51.344;6.550;2023-06-14T06:55:18;101111.06;;;20.91;39.29
75740;BME280;64357;51.344;6.550;2023-06-14T06:57:43;101104.69;;;21.14;39.04
75740;BME280;64357;51.344;6.550;2023-06-14T07:00:09;101115.75;;;21.24;39.36
75740;BME280;64357;51.344;6.550;2023-06-14T07:02:37;101126.03;;;21.51;38.62
75740;BME280;64357;51.344;6.550;2023-06-14T07:05:03;101120.59;;;21.61;37.70
75740;BME280;64357;51.344;6.550;2023-06-14T07:07:29;101123.97;;;22.04;36.40
75740;BME280;64357;51.344;6.550;2023-06-14T07:09:54;101126.28;;;22.59;35.48
75740;BME280;64357;51.344;6.550;2023-06-14T07:12:23;101131.81;;;22.96;34.41
75740;BME280;64357;51.344;6.550;2023-06-14T07:14:48;101138.72;;;23.45;32.92
75740;BME280;64357;51.344;6.550;2023-06-14T07:17:16;101139.88;;;23.66;32.75
75740;BME280;64357;51.344;6.550;2023-06-14T07:19:48;101134.06;;;24.06;32.68
75740;BME280;64357;51.344;6.550;2023-06-14T07:22:18;101138.34;;;24.75;31.24
75740;BME280;64357;51.344;6.550;2023-06-14T07:24:47;101137.31;;;24.91;30.47
75740;BME280;64357;51.344;6.550;2023-06-14T07:27:15;101129.59;;;25.12;29.67
75740;BME280;64357;51.344;6.550;2023-06-14T07:29:42;101123.91;;;25.03;29.80
75740;BME280;64357;51.344;6.550;2023-06-14T07:32:10;101134.16;;;25.56;30.06
75740;BME280;64357;51.344;6.550;2023-06-14T07:34:41;101118.25;;;25.71;29.90
75740;BME280;64357;51.344;6.550;2023-06-14T07:37:10;101123.06;;;25.21;29.78
75740;BME280;64357;51.344;6.550;2023-06-14T07:39:35;101123.09;;;25.04;29.65
75740;BME280;64357;51.344;6.550;2023-06-14T07:42:00;101114.09;;;25.36;28.40
75740;BME280;64357;51.344;6.550;2023-06-14T07:44:29;101137.34;;;25.68;28.60
75740;BME280;64357;51.344;6.550;2023-06-14T07:46:56;101146.78;;;26.05;28.13
75740;BME280;64357;51.344;6.550;2023-06-14T07:49:24;101135.03;;;25.74;27.84
75740;BME280;64357;51.344;6.550;2023-06-14T07:51:54;101143.38;;;26.28;27.97
75740;BME280;64357;51.344;6.550;2023-06-14T07:54:20;101147.72;;;26.71;26.97
75740;BME280;64357;51.344;6.550;2023-06-14T07:56:52;101149.88;;;26.81;26.26
75740;BME280;64357;51.344;6.550;2023-06-14T07:59:17;101140.63;;;26.46;26.34
75740;BME280;64357;51.344;6.550;2023-06-14T08:01:44;101148.88;;;26.35;26.68
75740;BME280;64357;51.344;6.550;2023-06-14T08:04:18;101144.22;;;26.71;26.77
75740;BME280;64357;51.344;6.550;2023-06-14T08:06:49;101147.91;;;27.45;26.14
75740;BME280;64357;51.344;6.550;2023-06-14T08:09:19;101148.44;;;27.84;25.85
75740;BME280;64357;51.344;6.550;2023-06-14T08:11:44;101136.59;;;26.77;26.42
75740;BME280;64357;51.344;6.550;2023-06-14T08:14:09;101142.00;;;27.04;25.97
75740;BME280;64357;51.344;6.550;2023-06-14T08:16:35;101141.69;;;27.43;25.27
75740;BME280;64357;51.344;6.550;2023-06-14T08:19:26;101152.19;;;26.96;24.81
75740;BME280;64357;51.344;6.550;2023-06-14T08:22:23;101144.91;;;26.02;25.73
75740;BME280;64357;51.344;6.550;2023-06-14T08:24:50;101140.34;;;26.61;25.26
75740;BME280;64357;51.344;6.550;2023-06-14T08:27:18;101139.75;;;27.13;25.60
75740;BME280;64357;51.344;6.550;2023-06-14T08:29:51;101133.97;;;27.22;25.07
75740;BME280;64357;51.344;6.550;2023-06-14T08:32:25;101133.69;;;26.69;25.56
75740;BME280;64357;51.344;6.550;2023-06-14T08:34:53;101110.75;;;26.41;25.30
75740;BME280;64357;51.344;6.550;2023-06-14T08:37:22;101141.88;;;27.01;25.01
75740;BME280;64357;51.344;6.550;2023-06-14T08:39:48;101117.78;;;27.09;25.73
75740;BME280;64357;51.344;6.550;2023-06-14T08:42:14;101141.78;;;26.98;25.61
75740;BME280;64357;51.344;6.550;2023-06-14T08:44:40;101132.22;;;27.70;24.40
75740;BME280;64357;51.344;6.550;2023-06-14T08:47:07;101142.91;;;27.76;24.72
75740;BME280;64357;51.344;6.550;2023-06-14T08:49:36;101144.31;;;27.43;25.80
75740;BME280;64357;51.344;6.550;2023-06-14T08:52:10;101147.16;;;27.49;25.71
75740;BME280;64357;51.344;6.550;2023-06-14T08:54:38;101141.50;;;27.86;25.66
75740;BME280;64357;51.344;6.550;2023-06-14T08:57:11;101142.19;;;28.60;24.34
75740;BME280;64357;51.344;6.550;2023-06-14T08:59:47;101152.75;;;27.82;25.13
75740;BME280;64357;51.344;6.550;2023-06-14T09:02:14;101143.69;;;27.50;26.02
75740;BME280;64357;51.344;6.550;2023-06-14T09:04:43;101136.22;;;27.36;26.33
75740;BME280;64357;51.344;6.550;2023-06-14T09:07:09;101149.31;;;27.60;25.76
75740;BME280;64357;51.344;6.550;2023-06-14T09:09:39;101149.31;;;27.60;25.65
75740;BME280;64357;51.344;6.550;2023-06-14T09:12:07;101149.75;;;27.23;26.45
75740;BME280;64357;51.344;6.550;2023-06-14T09:14:35;101147.25;;;27.50;26.06
75740;BME280;64357;51.344;6.550;2023-06-14T09:17:06;101149.03;;;28.02;25.78
75740;BME280;64357;51.344;6.550;2023-06-14T09:19:34;101150.38;;;27.89;25.86
75740;BME280;64357;51.344;6.550;2023-06-14T09:22:06;101142.81;;;27.49;26.05
75740;BME280;64357;51.344;6.550;2023-06-14T09:24:41;101153.69;;;27.12;26.87
75740;BME280;64357;51.344;6.550;2023-06-14T09:27:11;101144.56;;;27.98;25.90
75740;BME280;64357;51.344;6.550;2023-06-14T09:29:39;101154.41;;;28.05;25.89
75740;BME280;64357;51.344;6.550;2023-06-14T09:32:05;101162.81;;;27.95;26.77
75740;BME280;64357;51.344;6.550;2023-06-14T09:34:35;101162.91;;;27.49;26.79
75740;BME280;64357;51.344;6.550;2023-06-14T09:37:37;101167.94;;;27.43;26.39
75740;BME280;64357;51.344;6.550;2023-06-14T09:40:21;101169.66;;;27.90;26.28
75740;BME280;64357;51.344;6.550;2023-06-14T09:42:49;101167.91;;;28.41;25.27
75740;BME280;64357;51.344;6.550;2023-06-14T09:45:17;101172.00;;;28.08;26.10
75740;BME280;64357;51.344;6.550;2023-06-14T09:47:49;101172.69;;;28.28;26.03
75740;BME280;64357;51.344;6.550;2023-06-14T09:50:14;101163.56;;;28.43;25.90
75740;BME280;64357;51.344;6.550;2023-06-14T09:52:44;101167.81;;;27.63;27.18
75740;BME280;64357;51.344;6.550;2023-06-14T09:55:12;101165.00;;;28.08;26.37
75740;BME280;64357;51.344;6.550;2023-06-14T09:57:45;101165.75;;;27.79;26.53
75740;BME280;64357;51.344;6.550;2023-06-14T10:00:13;101172.69;;;29.10;25.94
75740;BME280;64357;51.344;6.550;2023-06-14T10:02:45;101176.28;;;28.04;25.94
75740;BME280;64357;51.344;6.550;2023-06-14T10:05:17;101164.63;;;28.49;24.95
75740;BME280;64357;51.344;6.550;2023-06-14T10:07:48;101173.13;;;28.40;25.59
75740;BME280;64357;51.344;6.550;2023-06-14T10:10:19;101186.91;;;28.33;24.65
75740;BME280;64357;51.344;6.550;2023-06-14T10:12:54;101175.47;;;27.57;25.13
75740;BME280;64357;51.344;6.550;2023-06-14T10:15:27;101163.75;;;27.24;25.77
75740;BME280;64357;51.344;6.550;2023-06-14T10:18:01;101177.44;;;28.66;24.47
75740;BME280;64357;51.344;6.550;2023-06-14T10:23:21;101166.41;;;28.78;23.92
75740;BME280;64357;51.344;6.550;2023-06-14T10:25:54;101172.53;;;28.23;24.11
75740;BME280;64357;51.344;6.550;2023-06-14T10:28:22;101169.91;;;27.72;24.88
75740;BME280;64357;51.344;6.550;2023-06-14T10:31:07;101170.31;;;28.35;23.84
75740;BME280;64357;51.344;6.550;2023-06-14T10:39:05;101171.97;;;29.16;23.29
75740;BME280;64357;51.344;6.550;2023-06-14T10:41:38;101159.56;;;29.42;23.01
75740;BME280;64357;51.344;6.550;2023-06-14T10:44:30;101167.75;;;28.37;24.68
75740;BME280;64357;51.344;6.550;2023-06-14T10:47:01;101154.41;;;28.05;24.78
75740;BME280;64357;51.344;6.550;2023-06-14T10:52:14;101155.16;;;28.82;23.51
75740;BME280;64357;51.344;6.550;2023-06-14T10:55:16;101151.59;;;28.80;23.83
75740;BME280;64357;51.344;6.550;2023-06-14T10:57:49;101138.50;;;29.10;23.47
75740;BME280;64357;51.344;6.550;2023-06-14T11:00:25;101145.97;;;28.68;23.54
75740;BME280;64357;51.344;6.550;2023-06-14T11:10:56;101154.75;;;29.27;23.13
75740;BME280;64357;51.344;6.550;2023-06-14T11:13:26;101158.00;;;29.18;23.24
75740;BME280;64357;51.344;6.550;2023-06-14T11:15:52;101155.53;;;28.66;24.27
75740;BME280;64357;51.344;6.550;2023-06-14T11:18:30;101158.38;;;28.20;23.66
75740;BME280;64357;51.344;6.550;2023-06-14T11:20:58;101135.94;;;27.53;24.40
75740;BME280;64357;51.344;6.550;2023-06-14T11:23:23;101140.19;;;27.25;25.26
75740;BME280;64357;51.344;6.550;2023-06-14T11:25:53;101132.97;;;27.68;23.91
75740;BME280;64357;51.344;6.550;2023-06-14T11:28:20;101139.94;;;27.67;24.60
75740;BME280;64357;51.344;6.550;2023-06-14T11:31:03;101146.09;;;27.68;24.93
75740;BME280;64357;51.344;6.550;2023-06-14T11:33:29;101151.34;;;27.92;24.78
75740;BME280;64357;51.344;6.550;2023-06-14T11:35:58;101150.06;;;27.56;24.65
75740;BME280;64357;51.344;6.550;2023-06-14T11:38:25;101162.75;;;27.68;25.04
75740;BME280;64357;51.344;6.550;2023-06-14T11:40:52;101160.03;;;27.67;25.43
75740;BME280;64357;51.344;6.550;2023-06-14T11:43:18;101146.91;;;27.90;24.98
75740;BME280;64357;51.344;6.550;2023-06-14T11:45:57;101148.03;;;27.97;25.02
75740;BME280;64357;51.344;6.550;2023-06-14T11:48:50;101131.34;;;27.22;26.03
75740;BME280;64357;51.344;6.550;2023-06-14T11:51:21;101130.13;;;27.14;26.05
75740;BME280;64357;51.344;6.550;2023-06-14T11:53:55;101134.94;;;27.99;25.13
75740;BME280;64357;51.344;6.550;2023-06-14T11:56:42;101125.75;;;28.13;25.32
75740;BME280;64357;51.344;6.550;2023-06-14T11:59:21;101107.78;;;27.98;25.36
75740;BME280;64357;51.344;6.550;2023-06-14T12:01:56;101105.50;;;26.86;26.64
75740;BME280;64357;51.344;6.550;2023-06-14T12:04:28;101139.50;;;27.55;26.22
75740;BME280;64357;51.344;6.550;2023-06-14T12:06:57;101146.78;;;27.62;25.56
75740;BME280;64357;51.344;6.550;2023-06-14T12:09:23;101125.22;;;27.47;25.71
75740;BME280;64357;51.344;6.550;2023-06-14T12:11:49;101140.00;;;27.93;26.06
75740;BME280;64357;51.344;6.550;2023-06-14T12:14:31;101140.47;;;27.57;26.19
75740;BME280;64357;51.344;6.550;2023-06-14T12:17:05;101136.50;;;27.94;26.32
75740;BME280;64357;51.344;6.550;2023-06-14T12:19:41;101130.41;;;27.95;25.41
75740;BME280;64357;51.344;6.550;2023-06-14T12:22:09;101139.03;;;27.90;26.61
75740;BME280;64357;51.344;6.550;2023-06-14T12:24:35;101138.22;;;27.44;27.22
75740;BME280;64357;51.344;6.550;2023-06-14T12:27:07;101130.31;;;27.18;26.99
75740;BME280;64357;51.344;6.550;2023-06-14T12:29:33;101150.81;;;27.52;27.29
75740;BME280;64357;51.344;6.550;2023-06-14T12:31:58;101144.91;;;27.59;26.53
75740;BME280;64357;51.344;6.550;2023-06-14T12:34:28;101131.03;;;28.13;25.90
75740;BME280;64357;51.344;6.550;2023-06-14T12:36:54;101112.28;;;27.51;26.13
75740;BME280;64357;51.344;6.550;2023-06-14T12:39:20;101132.78;;;26.69;27.28
75740;BME280;64357;51.344;6.550;2023-06-14T12:41:46;101133.25;;;26.38;28.22
75740;BME280;64357;51.344;6.550;2023-06-14T12:44:12;101148.03;;;26.79;27.93
75740;BME280;64357;51.344;6.550;2023-06-14T12:46:38;101131.53;;;26.59;27.83
75740;BME280;64357;51.344;6.550;2023-06-14T12:49:16;101115.25;;;26.24;28.84
75740;BME280;64357;51.344;6.550;2023-06-14T12:51:51;101108.94;;;26.19;29.25
75740;BME280;64357;51.344;6.550;2023-06-14T12:54:16;101105.28;;;25.53;29.21
75740;BME280;64357;51.344;6.550;2023-06-14T12:56:42;101109.97;;;25.41;29.42
75740;BME280;64357;51.344;6.550;2023-06-14T12:59:12;101151.19;;;25.46;29.92
75740;BME280;64357;51.344;6.550;2023-06-14T13:01:42;101124.09;;;25.25;30.48
75740;BME280;64357;51.344;6.550;2023-06-14T13:04:15;101117.06;;;25.43;30.40
75740;BME280;64357;51.344;6.550;2023-06-14T13:06:41;101108.03;;;25.75;29.73
75740;BME280;64357;51.344;6.550;2023-06-14T13:09:06;101122.00;;;25.76;30.32
75740;BME280;64357;51.344;6.550;2023-06-14T13:11:33;101127.31;;;25.58;30.01
75740;BME280;64357;51.344;6.550;2023-06-14T13:13:58;101109.03;;;25.60;29.91
75740;BME280;64357;51.344;6.550;2023-06-14T13:16:25;101122.75;;;25.73;30.25
75740;BME280;64357;51.344;6.550;2023-06-14T13:18:53;101124.88;;;25.63;30.75
75740;BME280;64357;51.344;6.550;2023-06-14T13:21:24;101138.22;;;25.29;30.91